createdAt,value
2023-05-12T00:00:20.603Z,15.77
2023-05-12T00:02:47.816Z,15.84
2023-05-12T00:05:14.777Z,15.74
2023-05-12T00:07:41.593Z,15.88
2023-05-12T00:10:09.085Z,15.79
2023-05-12T00:12:36.018Z,15.73
2023-05-12T00:15:02.945Z,15.78
2023-05-12T00:17:31.185Z,15.78
2023-05-12T00:19:58.036Z,15.98
2023-05-12T00:22:26.782Z,15.87
2023-05-12T00:24:53.708Z,15.90
2023-05-12T00:27:20.691Z,15.97
2023-05-12T00:29:47.549Z,16.09
2023-05-12T00:32:14.565Z,16.01
2023-05-12T00:34:43.393Z,15.58
2023-05-12T00:37:10.425Z,15.84
2023-05-12T00:39:38.153Z,15.85
2023-05-12T00:42:05.669Z,15.79
2023-05-12T00:44:32.657Z,15.96
2023-05-12T00:46:59.795Z,15.52
2023-05-12T00:49:27.556Z,15.58
2023-05-12T00:51:56.373Z,15.77
2023-05-12T00:54:23.305Z,15.93
2023-05-12T00:56:50.157Z,16.00
2023-05-12T00:59:16.984Z,15.79
2023-05-12T01:01:44.377Z,15.91
2023-05-12T01:04:11.291Z,15.89
2023-05-12T01:06:41.114Z,15.86
2023-05-12T01:09:10.125Z,15.91
2023-05-12T01:11:38.285Z,15.71
2023-05-12T01:14:05.102Z,15.92
2023-05-12T01:16:39.507Z,16.01
2023-05-12T01:19:10.802Z,15.98
2023-05-12T01:21:38.100Z,16.07
2023-05-12T01:24:08.823Z,16.06
2023-05-12T01:26:37.274Z,15.88
2023-05-12T01:29:05.098Z,16.01
2023-05-12T01:31:33.140Z,15.92
2023-05-12T01:34:00.219Z,16.10
2023-05-12T01:36:27.146Z,15.69
2023-05-12T01:38:54.363Z,15.96
2023-05-12T01:41:21.404Z,16.09
2023-05-12T01:43:49.671Z,16.17
2023-05-12T01:46:16.590Z,16.17
2023-05-12T01:48:44.095Z,16.22
2023-05-12T01:51:11.151Z,16.20
2023-05-12T01:53:38.056Z,16.15
2023-05-12T01:56:05.148Z,15.94
2023-05-12T01:58:32.008Z,16.13
2023-05-12T02:01:00.327Z,16.07
2023-05-12T02:03:27.275Z,16.24
2023-05-12T02:05:54.162Z,16.23
2023-05-12T02:08:21.574Z,16.20
2023-05-12T02:10:48.517Z,16.02
2023-05-12T02:13:15.505Z,16.13
2023-05-12T02:15:42.388Z,16.06
2023-05-12T02:18:10.889Z,16.01
2023-05-12T02:20:37.786Z,16.12
2023-05-12T02:23:04.584Z,16.15
2023-05-12T02:25:31.514Z,16.07
2023-05-12T02:27:58.473Z,16.16
2023-05-12T02:30:25.416Z,16.17
2023-05-12T02:32:52.358Z,16.26
2023-05-12T02:35:21.529Z,16.33
2023-05-12T02:37:48.461Z,16.35
2023-05-12T02:40:16.085Z,16.31
2023-05-12T02:42:43.625Z,16.39
2023-05-12T02:45:11.626Z,16.38
2023-05-12T02:47:38.517Z,16.40
2023-05-12T02:50:06.662Z,16.44
2023-05-12T02:52:35.114Z,16.38
2023-05-12T02:55:01.906Z,16.46
2023-05-12T02:57:34.035Z,16.44
2023-05-12T03:00:01.681Z,16.22
2023-05-12T03:02:28.765Z,16.36
2023-05-12T03:04:55.631Z,16.40
2023-05-12T03:07:22.619Z,16.10
2023-05-12T03:09:50.952Z,15.97
2023-05-12T03:12:17.838Z,16.14
2023-05-12T03:14:44.785Z,15.94
2023-05-12T03:17:11.790Z,15.67
2023-05-12T03:19:38.796Z,15.85
2023-05-12T03:22:07.468Z,16.00
2023-05-12T03:24:34.693Z,16.05
2023-05-12T03:27:02.988Z,15.92
2023-05-12T03:29:29.985Z,15.99
2023-05-12T03:31:56.926Z,15.96
2023-05-12T03:34:23.796Z,15.95
2023-05-12T03:36:50.711Z,15.94
2023-05-12T03:39:17.690Z,15.88
2023-05-12T03:41:44.526Z,15.73
2023-05-12T03:44:13.193Z,15.77
2023-05-12T03:46:40.139Z,15.66
2023-05-12T03:49:07.114Z,15.79
2023-05-12T03:51:33.983Z,15.58
2023-05-12T03:54:00.925Z,15.57
2023-05-12T03:56:28.717Z,15.67
2023-05-12T03:58:55.663Z,15.70
2023-05-12T04:01:24.067Z,15.60
2023-05-12T04:03:51.019Z,15.51
2023-05-12T04:06:18.006Z,15.61
2023-05-12T04:08:44.896Z,15.71
2023-05-12T04:11:11.841Z,15.54
2023-05-12T04:13:38.749Z,15.58
2023-05-12T04:16:06.262Z,15.63
2023-05-12T04:18:35.822Z,15.22
2023-05-12T04:21:03.025Z,15.53
2023-05-12T04:23:29.932Z,15.53
2023-05-12T04:25:56.890Z,15.32
2023-05-12T04:28:23.839Z,15.52
2023-05-12T04:30:50.735Z,15.35
2023-05-12T04:33:17.681Z,15.48
2023-05-12T04:35:46.225Z,15.44
2023-05-12T04:38:13.453Z,15.01
2023-05-12T04:40:40.333Z,15.12
2023-05-12T04:43:07.419Z,14.73
2023-05-12T04:45:34.289Z,15.06
2023-05-12T04:48:01.239Z,15.07
2023-05-12T04:50:28.157Z,15.17
2023-05-12T04:52:56.532Z,15.36
2023-05-12T04:55:23.802Z,15.02
2023-05-12T04:57:50.654Z,15.31
2023-05-12T05:00:17.819Z,15.13
2023-05-12T05:02:44.870Z,14.97
2023-05-12T05:05:11.924Z,15.01
2023-05-12T05:07:38.977Z,14.84
2023-05-12T05:10:08.676Z,15.06
2023-05-12T05:12:35.663Z,14.71
2023-05-12T05:15:02.552Z,14.85
2023-05-12T05:17:29.523Z,14.96
2023-05-12T05:19:59.337Z,14.79
2023-05-12T05:22:27.587Z,14.71
2023-05-12T05:24:54.893Z,15.02
2023-05-12T05:27:23.067Z,14.54
2023-05-12T05:29:50.128Z,14.68
2023-05-12T05:32:17.452Z,14.66
2023-05-12T05:34:44.293Z,14.69
2023-05-12T05:37:11.224Z,14.81
2023-05-12T05:39:38.125Z,14.96
2023-05-12T05:42:05.179Z,14.96
2023-05-12T05:44:33.458Z,14.69
2023-05-12T05:47:00.392Z,14.28
2023-05-12T05:49:27.279Z,14.36
2023-05-12T05:51:54.259Z,14.49
2023-05-12T05:54:23.543Z,14.49
2023-05-12T05:56:50.796Z,14.65
2023-05-12T05:59:17.722Z,14.41
2023-05-12T06:01:46.165Z,14.47
2023-05-12T06:04:13.154Z,14.51
2023-05-12T06:06:40.092Z,14.76
2023-05-12T06:09:07.425Z,14.86
2023-05-12T06:11:34.240Z,14.66
2023-05-12T06:14:01.064Z,14.58
2023-05-12T06:16:29.183Z,14.38
2023-05-12T06:18:57.579Z,14.41
2023-05-12T06:21:24.586Z,14.36
2023-05-12T06:23:51.698Z,14.61
2023-05-12T06:26:18.728Z,14.52
2023-05-12T06:28:45.613Z,14.36
2023-05-12T06:31:12.452Z,14.42
2023-05-12T06:33:39.528Z,14.32
2023-05-12T06:36:08.874Z,14.40
2023-05-12T06:38:35.673Z,14.55
2023-05-12T06:41:02.675Z,14.45
2023-05-12T06:43:29.626Z,14.59
2023-05-12T06:45:57.104Z,14.63
2023-05-12T06:48:24.359Z,14.68
2023-05-12T06:50:51.336Z,14.81
2023-05-12T06:53:19.535Z,14.51
2023-05-12T06:55:47.114Z,14.09
2023-05-12T06:58:13.994Z,14.04
2023-05-12T07:00:40.837Z,14.24
2023-05-12T07:03:10.172Z,14.04
2023-05-12T07:05:37.410Z,14.26
2023-05-12T07:08:04.850Z,14.32
2023-05-12T07:10:33.285Z,14.13
2023-05-12T07:13:00.217Z,14.31
2023-05-12T07:15:27.227Z,14.08
2023-05-12T07:17:55.594Z,14.08
2023-05-12T07:20:22.600Z,14.41
2023-05-12T07:22:49.582Z,14.69
2023-05-12T07:25:16.686Z,14.79
2023-05-12T07:27:45.092Z,14.51
2023-05-12T07:30:12.836Z,14.43
2023-05-12T07:32:39.878Z,14.37
2023-05-12T07:35:07.637Z,14.22
2023-05-12T07:37:35.195Z,14.26
2023-05-12T07:40:02.291Z,14.28
2023-05-12T07:42:29.178Z,14.35
2023-05-12T07:44:57.479Z,14.33
2023-05-12T07:47:24.360Z,14.27
2023-05-12T07:49:51.304Z,14.43
2023-05-12T07:52:18.358Z,14.27
2023-05-12T07:54:45.317Z,14.32
2023-05-12T07:57:12.299Z,14.37
2023-05-12T07:59:39.193Z,14.27
2023-05-12T08:02:08.102Z,14.53
2023-05-12T08:04:35.206Z,14.50
2023-05-12T08:07:02.188Z,14.35
2023-05-12T08:09:29.069Z,14.29
2023-05-12T08:11:55.899Z,14.41
2023-05-12T08:14:22.803Z,14.52
2023-05-12T08:16:49.783Z,14.60
2023-05-12T08:19:18.126Z,14.77
2023-05-12T08:21:44.991Z,14.72
2023-05-12T08:24:11.982Z,14.80
2023-05-12T08:26:38.838Z,14.41
2023-05-12T08:29:09.091Z,14.20
2023-05-12T08:31:38.149Z,14.47
2023-05-12T08:34:10.268Z,14.57
2023-05-12T08:36:39.816Z,14.86
2023-05-12T08:39:08.076Z,14.28
2023-05-12T08:41:43.822Z,14.99
2023-05-12T08:44:12.336Z,14.92
2023-05-12T08:46:39.586Z,14.79
2023-05-12T08:49:11.986Z,14.90
2023-05-12T08:51:42.094Z,15.31
2023-05-12T08:54:10.670Z,15.38
2023-05-12T08:59:10.455Z,15.70
2023-05-12T09:01:38.447Z,15.65
2023-05-12T09:04:06.132Z,15.67
2023-05-12T09:06:33.382Z,15.58
2023-05-12T09:09:02.124Z,15.41
2023-05-12T09:11:28.969Z,15.51
2023-05-12T09:14:04.465Z,15.67
2023-05-12T09:16:34.017Z,15.58
2023-05-12T09:19:02.791Z,15.71
2023-05-12T09:21:30.912Z,15.87
2023-05-12T09:23:59.107Z,16.04
2023-05-12T09:26:28.563Z,16.09
2023-05-12T09:29:04.576Z,16.01
2023-05-12T09:31:31.434Z,16.54
2023-05-12T09:33:58.583Z,16.90
2023-05-12T09:36:26.153Z,17.32
2023-05-12T09:38:59.501Z,17.37
2023-05-12T09:41:27.783Z,17.00
2023-05-12T09:43:54.796Z,16.86
2023-05-12T09:46:22.225Z,16.12
2023-05-12T09:48:49.267Z,16.36
2023-05-12T09:51:18.485Z,16.68
2023-05-12T09:53:46.924Z,16.87
2023-05-12T09:56:14.551Z,17.02
2023-05-12T09:58:45.418Z,17.34
2023-05-12T10:01:22.684Z,17.05
2023-05-12T10:03:52.812Z,16.99
2023-05-12T10:06:22.736Z,17.16
2023-05-12T10:08:56.406Z,17.08
2023-05-12T10:11:23.323Z,17.64
2023-05-12T10:13:52.770Z,17.64
2023-05-12T10:16:20.238Z,17.83
2023-05-12T10:18:48.896Z,17.06
2023-05-12T10:21:16.508Z,17.43
2023-05-12T10:23:44.587Z,17.68
2023-05-12T10:26:11.666Z,17.53
2023-05-12T10:28:38.576Z,17.61
2023-05-12T10:31:07.852Z,17.73
2023-05-12T10:33:34.857Z,17.18
2023-05-12T10:36:02.235Z,17.27
2023-05-12T10:38:36.201Z,17.60
2023-05-12T10:41:05.713Z,17.35
2023-05-12T10:43:39.264Z,17.74
2023-05-12T10:46:09.062Z,17.67
2023-05-12T10:48:38.199Z,17.17
2023-05-12T10:51:08.816Z,17.63
2023-05-12T10:53:48.355Z,17.86
2023-05-12T10:56:22.899Z,17.51
2023-05-12T10:59:15.442Z,17.90
2023-05-12T11:01:58.904Z,18.02
2023-05-12T11:04:43.510Z,18.22
2023-05-12T11:07:14.342Z,17.96
2023-05-12T11:09:56.959Z,18.29
2023-05-12T11:12:26.793Z,17.46
2023-05-12T11:14:54.030Z,17.63
2023-05-12T11:17:22.407Z,17.95
2023-05-12T11:19:50.776Z,17.74
2023-05-12T11:22:20.211Z,17.48
2023-05-12T11:24:48.166Z,17.85
2023-05-12T11:27:16.646Z,17.08
2023-05-12T11:29:49.623Z,17.10
2023-05-12T11:32:16.498Z,17.12
2023-05-12T11:34:44.733Z,17.95
2023-05-12T11:37:11.672Z,18.69
2023-05-12T11:39:38.524Z,19.33
2023-05-12T11:42:13.450Z,19.24
2023-05-12T11:44:47.539Z,19.11
2023-05-12T11:47:15.703Z,19.44
2023-05-12T11:49:48.402Z,19.05
2023-05-12T11:52:16.059Z,18.66
2023-05-12T11:54:49.107Z,18.92
2023-05-12T11:57:26.120Z,19.32
2023-05-12T11:59:58.005Z,19.54
2023-05-12T12:02:25.138Z,19.23
2023-05-12T12:04:53.785Z,18.97
2023-05-12T12:07:29.253Z,19.16
2023-05-12T12:09:56.103Z,19.60
2023-05-12T12:12:23.330Z,19.79
2023-05-12T12:14:50.274Z,19.86
2023-05-12T12:17:17.070Z,19.71
2023-05-12T12:19:43.960Z,19.91
2023-05-12T12:22:12.137Z,19.54
2023-05-12T12:24:38.979Z,19.95
2023-05-12T12:27:06.087Z,20.10
2023-05-12T12:29:32.922Z,20.24
2023-05-12T12:31:59.918Z,20.15
2023-05-12T12:34:26.942Z,19.94
2023-05-12T12:36:53.828Z,19.82
2023-05-12T12:39:23.222Z,19.58
2023-05-12T12:41:50.307Z,19.44
2023-05-12T12:44:17.678Z,19.25
2023-05-12T12:46:44.630Z,19.26
2023-05-12T12:49:11.536Z,19.26
2023-05-12T12:51:45.481Z,19.37
2023-05-12T12:54:13.402Z,19.47
2023-05-12T12:56:42.645Z,19.04
2023-05-12T12:59:09.557Z,19.04
2023-05-12T13:01:36.548Z,19.05
2023-05-12T13:04:04.557Z,18.55
2023-05-12T13:06:31.553Z,18.51
2023-05-12T13:08:58.456Z,19.29
2023-05-12T13:11:25.429Z,19.06
2023-05-12T13:13:53.681Z,18.68
2023-05-12T13:16:20.531Z,18.92
2023-05-12T13:18:47.420Z,19.41
2023-05-12T13:21:14.422Z,20.31
2023-05-12T13:23:41.245Z,20.68
2023-05-12T13:26:08.985Z,20.59
2023-05-12T13:28:35.906Z,20.74
2023-05-12T13:31:04.393Z,20.91
2023-05-12T13:33:31.279Z,20.87
2023-05-12T13:35:59.124Z,21.17
2023-05-12T13:38:26.486Z,21.13
2023-05-12T13:40:53.645Z,20.42
2023-05-12T13:43:21.520Z,20.38
2023-05-12T13:45:48.515Z,20.40
2023-05-12T13:48:17.143Z,20.68
2023-05-12T13:50:44.002Z,21.26
2023-05-12T13:53:12.629Z,21.21
2023-05-12T13:55:40.953Z,20.66
2023-05-12T13:58:07.914Z,20.54
2023-05-12T14:00:34.798Z,20.99
2023-05-12T14:03:01.800Z,20.89
2023-05-12T14:05:30.513Z,20.79
2023-05-12T14:07:57.469Z,21.47
2023-05-12T14:10:24.380Z,21.15
2023-05-12T14:12:51.313Z,22.14
2023-05-12T14:17:47.978Z,21.96
2023-05-12T14:20:14.870Z,22.04
2023-05-12T14:22:43.092Z,21.19
2023-05-12T14:25:10.176Z,21.35
2023-05-12T14:27:37.591Z,21.40
2023-05-12T14:30:06.109Z,21.64
2023-05-12T14:32:34.339Z,21.55
2023-05-12T14:35:01.411Z,21.05
2023-05-12T14:37:28.240Z,21.23
2023-05-12T14:39:56.771Z,21.31
2023-05-12T14:42:23.852Z,21.45
2023-05-12T14:44:50.629Z,21.12
2023-05-12T14:47:17.484Z,21.12
2023-05-12T14:49:45.610Z,21.71
2023-05-12T14:52:12.600Z,21.33
2023-05-12T14:54:39.486Z,22.25
2023-05-12T14:57:07.924Z,21.90
2023-05-12T14:59:34.874Z,22.44
2023-05-12T15:02:01.771Z,21.60
2023-05-12T15:04:28.679Z,21.96
2023-05-12T15:06:55.597Z,22.85
2023-05-12T15:09:22.435Z,22.48
2023-05-12T15:11:49.855Z,22.04
2023-05-12T15:14:18.231Z,22.12
2023-05-12T15:16:45.294Z,22.13
2023-05-12T15:19:12.294Z,21.91
2023-05-12T15:21:39.171Z,22.32
2023-05-12T15:24:06.829Z,22.25
2023-05-12T15:26:35.226Z,21.81
2023-05-12T15:29:03.667Z,21.84
2023-05-12T15:31:31.980Z,21.67
2023-05-12T15:33:58.868Z,22.20
2023-05-12T15:36:25.840Z,21.82
2023-05-12T15:38:52.838Z,22.30
2023-05-12T15:41:19.829Z,22.16
2023-05-12T15:43:46.801Z,22.14
2023-05-12T15:46:14.131Z,22.23
2023-05-12T15:48:42.555Z,22.53
2023-05-12T15:51:09.438Z,22.25
2023-05-12T15:53:36.572Z,22.07
2023-05-12T15:56:04.892Z,21.10
2023-05-12T15:58:31.913Z,22.09
2023-05-12T16:00:59.214Z,22.60
2023-05-12T16:03:26.489Z,22.75
2023-05-12T16:05:55.316Z,22.80
2023-05-12T16:08:24.075Z,22.61
2023-05-12T16:10:51.327Z,22.36
2023-05-12T16:13:18.385Z,21.92
2023-05-12T16:15:45.255Z,21.25
2023-05-12T16:18:12.191Z,21.27
2023-05-12T16:20:39.488Z,20.72
2023-05-12T16:23:08.123Z,20.28
2023-05-12T16:25:34.928Z,21.23
2023-05-12T16:28:01.782Z,21.48
2023-05-12T16:30:28.956Z,21.06
2023-05-12T16:32:56.537Z,21.13
2023-05-12T16:35:23.735Z,21.12
2023-05-12T16:37:50.867Z,21.01
2023-05-12T16:40:19.469Z,21.35
2023-05-12T16:42:46.465Z,21.30
2023-05-12T16:45:13.352Z,21.40
2023-05-12T16:47:45.089Z,21.58
2023-05-12T16:50:38.751Z,21.82
2023-05-12T16:53:42.127Z,21.68
2023-05-12T16:56:17.899Z,21.79
2023-05-12T16:58:44.789Z,22.03
2023-05-12T17:02:07.773Z,22.12
2023-05-12T17:04:40.648Z,21.79
2023-05-12T17:07:07.566Z,21.85
2023-05-12T17:09:34.570Z,21.91
2023-05-12T17:12:04.787Z,21.86
2023-05-12T17:14:31.645Z,21.84
2023-05-12T17:16:58.530Z,21.85
2023-05-12T17:19:25.499Z,21.59
2023-05-12T17:21:52.692Z,21.71
2023-05-12T17:24:19.660Z,21.65
2023-05-12T17:26:46.791Z,21.20
2023-05-12T17:29:15.094Z,21.55
2023-05-12T17:31:42.065Z,21.47
2023-05-12T17:34:08.982Z,21.34
2023-05-12T17:36:36.142Z,21.24
2023-05-12T17:39:03.060Z,21.23
2023-05-12T17:41:29.944Z,21.17
2023-05-12T17:43:56.879Z,21.25
2023-05-12T17:46:25.246Z,21.16
2023-05-12T17:48:52.131Z,21.12
2023-05-12T17:51:19.021Z,21.03
2023-05-12T17:53:46.390Z,20.98
2023-05-12T17:56:13.253Z,21.02
2023-05-12T17:58:40.094Z,21.06
2023-05-12T18:01:07.040Z,20.98
2023-05-12T18:03:35.460Z,20.91
2023-05-12T18:06:02.655Z,20.66
2023-05-12T18:08:29.534Z,20.84
2023-05-12T18:10:56.504Z,20.70
2023-05-12T18:13:23.459Z,20.93
2023-05-12T18:15:50.430Z,20.75
2023-05-12T18:18:17.368Z,20.82
2023-05-12T18:20:45.913Z,20.77
2023-05-12T18:23:12.833Z,20.91
2023-05-12T18:25:40.371Z,20.98
2023-05-12T18:28:07.692Z,20.83
2023-05-12T18:30:34.553Z,20.81
2023-05-12T18:33:01.477Z,20.55
2023-05-12T18:35:28.654Z,20.26
2023-05-12T18:37:57.046Z,20.49
2023-05-12T18:40:24.141Z,20.55
2023-05-12T18:42:51.168Z,20.27
2023-05-12T18:45:18.729Z,20.27
2023-05-12T18:47:46.298Z,20.29
2023-05-12T18:50:13.120Z,20.00
2023-05-12T18:52:39.970Z,20.14
2023-05-12T18:55:09.292Z,20.15
2023-05-12T18:57:36.111Z,20.11
2023-05-12T19:00:04.516Z,20.12
2023-05-12T19:02:31.414Z,20.00
2023-05-12T19:04:58.298Z,20.01
2023-05-12T19:07:25.186Z,19.96
2023-05-12T19:09:52.099Z,19.88
2023-05-12T19:12:20.528Z,19.84
2023-05-12T19:14:47.433Z,19.87
2023-05-12T19:17:14.252Z,19.81
2023-05-12T19:19:41.150Z,19.80
2023-05-12T19:22:08.071Z,19.67
2023-05-12T19:24:35.047Z,19.37
2023-05-12T19:27:02.053Z,19.24
2023-05-12T19:29:30.419Z,19.00
2023-05-12T19:31:57.409Z,18.99
2023-05-12T19:34:24.513Z,19.00
2023-05-12T19:36:53.031Z,19.28
2023-05-12T19:39:19.968Z,19.05
2023-05-12T19:41:46.808Z,19.07
2023-05-12T19:44:13.705Z,19.13
2023-05-12T19:46:42.025Z,19.08
2023-05-12T19:49:09.069Z,19.25
2023-05-12T19:51:36.106Z,19.09
2023-05-12T19:54:04.923Z,18.91
2023-05-12T19:56:32.054Z,18.94
2023-05-12T19:58:59.155Z,18.95
2023-05-12T20:01:26.505Z,18.78
2023-05-12T20:03:54.862Z,18.92
2023-05-12T20:06:22.545Z,18.78
2023-05-12T20:08:49.421Z,18.95
2023-05-12T20:11:16.287Z,19.12
2023-05-12T20:13:43.135Z,19.22
2023-05-12T20:16:09.986Z,19.15
2023-05-12T20:18:36.893Z,19.32
2023-05-12T20:21:05.188Z,19.23
2023-05-12T20:23:32.462Z,19.23
2023-05-12T20:25:59.914Z,19.13
2023-05-12T20:28:27.087Z,19.05
2023-05-12T20:30:54.063Z,19.16
2023-05-12T20:33:21.116Z,19.03
2023-05-12T20:35:48.044Z,19.00
2023-05-12T20:38:16.411Z,19.10
2023-05-12T20:40:43.434Z,19.03
2023-05-12T20:43:10.251Z,18.95
2023-05-12T20:45:37.727Z,18.92
2023-05-12T20:48:05.170Z,18.90
2023-05-12T20:50:32.028Z,18.87
2023-05-12T20:52:58.978Z,18.88
2023-05-12T20:55:27.290Z,18.82
2023-05-12T20:57:54.134Z,18.63
2023-05-12T21:00:21.692Z,18.76
2023-05-12T21:02:52.107Z,18.77
2023-05-12T21:05:19.695Z,18.71
2023-05-12T21:07:46.929Z,18.77
2023-05-12T21:10:13.855Z,18.68
2023-05-12T21:12:42.202Z,18.57
2023-05-12T21:15:10.796Z,18.54
2023-05-12T21:17:39.366Z,18.49
2023-05-12T21:20:08.758Z,18.36
2023-05-12T21:22:35.638Z,18.42
2023-05-12T21:25:02.609Z,18.32
2023-05-12T21:27:29.674Z,18.28
2023-05-12T21:29:58.079Z,18.26
2023-05-12T21:32:25.159Z,18.23
2023-05-12T21:34:52.001Z,18.20
2023-05-12T21:37:18.877Z,18.25
2023-05-12T21:39:45.912Z,18.24
2023-05-12T21:42:12.729Z,18.14
2023-05-12T21:44:39.585Z,18.15
2023-05-12T21:47:08.654Z,18.13
2023-05-12T21:49:35.516Z,18.06
2023-05-12T21:52:02.417Z,17.98
2023-05-12T21:54:31.880Z,17.95
2023-05-12T21:56:58.712Z,17.79
2023-05-12T21:59:25.715Z,17.86
2023-05-12T22:01:52.716Z,17.89
2023-05-12T22:04:21.006Z,17.74
2023-05-12T22:06:47.874Z,17.81
2023-05-12T22:09:16.131Z,17.77
2023-05-12T22:11:43.022Z,17.64
2023-05-12T22:14:10.031Z,17.61
2023-05-12T22:16:41.760Z,17.75
2023-05-12T22:19:09.687Z,17.66
2023-05-12T22:21:38.130Z,17.92
2023-05-12T22:24:05.558Z,17.95
2023-05-12T22:26:32.980Z,17.96
2023-05-12T22:28:59.811Z,18.14
2023-05-12T22:31:26.694Z,17.93
2023-05-12T22:33:53.636Z,17.57
2023-05-12T22:36:20.580Z,17.54
2023-05-12T22:38:48.812Z,17.14
2023-05-12T22:41:15.621Z,17.12
2023-05-12T22:43:42.469Z,17.05
2023-05-12T22:46:09.744Z,17.33
2023-05-12T22:48:39.448Z,16.88
2023-05-12T22:51:06.758Z,17.05
2023-05-12T22:53:35.767Z,16.81
2023-05-12T22:56:04.144Z,16.85
2023-05-12T22:58:31.459Z,16.86
2023-05-12T23:00:58.506Z,16.85
2023-05-12T23:03:25.623Z,16.87
2023-05-12T23:05:52.647Z,16.73
2023-05-12T23:08:19.631Z,16.74
2023-05-12T23:10:46.482Z,16.63
2023-05-12T23:13:14.777Z,16.58
2023-05-12T23:15:41.590Z,16.47
2023-05-12T23:18:08.483Z,16.49
2023-05-12T23:20:35.676Z,16.57
2023-05-12T23:23:02.572Z,16.59
2023-05-12T23:25:29.414Z,16.51
2023-05-12T23:27:56.262Z,16.67
2023-05-12T23:30:24.682Z,16.50
2023-05-12T23:32:52.029Z,16.17
2023-05-12T23:35:18.979Z,16.64
2023-05-12T23:37:45.842Z,16.64
2023-05-12T23:40:12.835Z,16.71
2023-05-12T23:42:39.702Z,16.60
2023-05-12T23:45:07.586Z,16.47
2023-05-12T23:47:35.914Z,16.26
2023-05-12T23:50:03.447Z,16.26
2023-05-12T23:52:30.460Z,15.80
2023-05-12T23:54:57.375Z,16.23
2023-05-12T23:57:24.346Z,16.19
2023-05-12T23:59:51.457Z,16.04
